createdAt,value
2023-04-05T00:01:22.748Z,101310.75
2023-04-05T00:03:27.313Z,101301.97
2023-04-05T00:05:31.670Z,101307.25
2023-04-05T00:07:36.858Z,101309.03
2023-04-05T00:09:40.669Z,101295.78
2023-04-05T00:11:44.110Z,101293.22
2023-04-05T00:13:47.870Z,101285.38
2023-04-05T00:15:51.781Z,101281.69
2023-04-05T00:17:55.598Z,101281.59
2023-04-05T00:19:59.215Z,101282.38
2023-04-05T00:22:03.777Z,101264.59
2023-04-05T00:24:15.609Z,101261.09
2023-04-05T00:26:20.445Z,101264.59
2023-04-05T00:28:30.710Z,101266.31
2023-04-05T00:30:35.317Z,101256.53
2023-04-05T00:32:39.394Z,101254.00
2023-04-05T00:34:42.955Z,101254.09
2023-04-05T00:36:46.530Z,101245.44
2023-04-05T00:38:51.863Z,101243.06
2023-04-05T00:40:57.402Z,101233.69
2023-04-05T00:43:01.312Z,101234.00
2023-04-05T00:45:06.718Z,101225.59
2023-04-05T00:47:10.620Z,101219.78
2023-04-05T00:49:14.890Z,101220.81
2023-04-05T00:51:20.397Z,101222.75
2023-04-05T00:53:25.045Z,101231.63
2023-04-05T00:55:30.284Z,101221.91
2023-04-05T00:57:39.341Z,101219.28
2023-04-05T00:59:43.254Z,101220.09
2023-04-05T01:01:55.828Z,101226.19
2023-04-05T01:04:03.564Z,101219.09
2023-04-05T01:06:23.684Z,101228.56
2023-04-05T01:08:35.365Z,101226.69
2023-04-05T01:10:46.342Z,101231.91
2023-04-05T01:12:51.929Z,101216.78
2023-04-05T01:14:57.224Z,101215.84
2023-04-05T01:17:00.915Z,101218.31
2023-04-05T01:19:05.015Z,101215.56
2023-04-05T01:21:30.331Z,101203.09
2023-04-05T01:23:46.102Z,101211.78
2023-04-05T01:26:29.745Z,101203.75
2023-04-05T01:29:12.045Z,101218.63
2023-04-05T01:31:24.836Z,101204.53
2023-04-05T01:33:36.629Z,101207.94
2023-04-05T01:35:46.802Z,101212.31
2023-04-05T01:37:55.513Z,101200.88
2023-04-05T01:40:00.175Z,101199.94
2023-04-05T01:42:04.758Z,101205.22
2023-04-05T01:44:09.621Z,101203.41
2023-04-05T01:46:13.419Z,101200.78
2023-04-05T01:48:19.841Z,101204.25
2023-04-05T01:50:23.327Z,101203.41
2023-04-05T01:52:27.885Z,101203.41
2023-04-05T01:54:31.461Z,101204.16
2023-04-05T01:56:35.066Z,101201.53
2023-04-05T01:58:40.556Z,101191.78
2023-04-05T02:00:44.495Z,101193.50
2023-04-05T02:02:48.376Z,101193.41
2023-04-05T02:04:53.694Z,101182.81
2023-04-05T02:06:58.753Z,101188.03
2023-04-05T02:09:02.966Z,101178.28
2023-04-05T02:11:06.666Z,101173.84
2023-04-05T02:13:10.569Z,101166.75
2023-04-05T02:15:14.339Z,101175.53
2023-04-05T02:17:18.325Z,101174.69
2023-04-05T02:19:23.388Z,101180.81
2023-04-05T02:21:28.932Z,101175.53
2023-04-05T02:23:33.450Z,101176.41
2023-04-05T02:25:36.995Z,101178.28
2023-04-05T02:27:41.872Z,101169.38
2023-04-05T02:29:47.090Z,101169.47
2023-04-05T02:31:52.741Z,101166.75
2023-04-05T02:33:58.266Z,101162.38
2023-04-05T02:36:05.755Z,101156.22
2023-04-05T02:38:11.096Z,101154.53
2023-04-05T02:40:17.113Z,101148.28
2023-04-05T02:42:20.789Z,101150.84
2023-04-05T02:44:27.452Z,101147.34
2023-04-05T02:46:31.534Z,101139.31
2023-04-05T02:48:36.305Z,101147.16
2023-04-05T02:50:41.562Z,101141.03
2023-04-05T02:52:45.986Z,101137.41
2023-04-05T02:54:51.061Z,101141.03
2023-04-05T02:57:02.662Z,101132.09
2023-04-05T02:59:15.005Z,101136.47
2023-04-05T03:01:21.038Z,101146.13
2023-04-05T03:03:25.278Z,101140.84
2023-04-05T03:05:31.239Z,101125.88
2023-04-05T03:07:35.936Z,101132.97
2023-04-05T03:09:44.842Z,101127.59
2023-04-05T03:11:50.613Z,101120.47
2023-04-05T03:13:54.769Z,101125.78
2023-04-05T03:16:13.335Z,101118.75
2023-04-05T03:18:20.282Z,101124.94
2023-04-05T03:20:26.035Z,101111.78
2023-04-05T03:22:34.656Z,101122.28
2023-04-05T03:24:39.635Z,101111.78
2023-04-05T03:26:46.900Z,101110.91
2023-04-05T03:28:54.418Z,101109.03
2023-04-05T03:31:04.236Z,101099.28
2023-04-05T03:33:08.805Z,101101.09
2023-04-05T03:35:19.667Z,101112.44
2023-04-05T03:37:24.379Z,101103.53
2023-04-05T03:39:36.853Z,101099.97
2023-04-05T03:41:41.243Z,101095.50
2023-04-05T03:43:45.874Z,101088.41
2023-04-05T03:45:50.896Z,101097.22
2023-04-05T03:47:55.430Z,101095.41
2023-04-05T03:49:59.806Z,101098.91
2023-04-05T03:52:03.673Z,101096.22
2023-04-05T03:54:07.587Z,101104.91
2023-04-05T03:56:13.365Z,101094.31
2023-04-05T03:58:23.483Z,101101.31
2023-04-05T04:00:27.435Z,101103.03
2023-04-05T04:02:58.895Z,101094.13
2023-04-05T04:05:02.976Z,101094.97
2023-04-05T04:07:07.262Z,101095.81
2023-04-05T04:09:11.294Z,101096.69
2023-04-05T04:11:15.900Z,101090.53
2023-04-05T04:13:19.682Z,101086.94
2023-04-05T04:15:29.902Z,101092.22
2023-04-05T04:17:45.555Z,101097.53
2023-04-05T04:20:12.273Z,101096.69
2023-04-05T04:22:33.568Z,101098.47
2023-04-05T04:25:04.844Z,101094.97
2023-04-05T04:27:22.300Z,101094.97
2023-04-05T04:30:03.609Z,101098.47
2023-04-05T04:32:55.084Z,101094.13
2023-04-05T04:35:25.973Z,101087.13
2023-04-05T04:37:37.753Z,101084.47
2023-04-05T04:40:09.027Z,101090.72
2023-04-05T04:42:47.320Z,101086.25
2023-04-05T04:45:10.897Z,101088.06
2023-04-05T04:47:23.225Z,101088.91
2023-04-05T04:49:40.477Z,101085.41
2023-04-05T04:51:45.254Z,101086.25
2023-04-05T04:53:48.434Z,101087.13
2023-04-05T04:55:51.746Z,101079.19
2023-04-05T04:57:55.524Z,101072.06
2023-04-05T04:59:58.721Z,101079.91
2023-04-05T05:02:02.016Z,101079.81
2023-04-05T05:04:05.543Z,101079.75
2023-04-05T05:06:12.743Z,101075.28
2023-04-05T05:08:21.155Z,101068.19
2023-04-05T05:10:24.893Z,101073.38
2023-04-05T05:12:30.089Z,101070.66
2023-04-05T05:14:33.270Z,101062.63
2023-04-05T05:16:36.597Z,101063.47
2023-04-05T05:18:41.680Z,101057.22
2023-04-05T05:20:44.959Z,101054.56
2023-04-05T05:22:48.602Z,101063.25
2023-04-05T05:24:53.260Z,101049.06
2023-04-05T05:26:56.508Z,101046.41
2023-04-05T05:29:02.199Z,101048.13
2023-04-05T05:31:07.770Z,101049.84
2023-04-05T05:33:12.416Z,101054.16
2023-04-05T05:35:17.825Z,101047.09
2023-04-05T05:37:23.576Z,101054.00
2023-04-05T05:39:26.859Z,101050.38
2023-04-05T05:41:31.459Z,101052.09
2023-04-05T05:43:34.674Z,101050.38
2023-04-05T05:45:38.025Z,101054.75
2023-04-05T05:47:42.250Z,101052.00
2023-04-05T05:49:45.788Z,101059.94
2023-04-05T05:51:49.115Z,101059.13
2023-04-05T05:53:52.834Z,101047.56
2023-04-05T05:55:56.845Z,101055.53
2023-04-05T05:58:01.697Z,101051.91
2023-04-05T06:00:09.813Z,101058.06
2023-04-05T06:02:16.044Z,101058.91
2023-04-05T06:04:19.777Z,101055.41
2023-04-05T06:06:23.682Z,101059.78
2023-04-05T06:08:28.731Z,101059.78
2023-04-05T06:10:31.771Z,101057.13
2023-04-05T06:12:35.448Z,101052.66
2023-04-05T06:14:40.143Z,101047.28
2023-04-05T06:16:43.434Z,101054.28
2023-04-05T06:18:46.765Z,101065.63
2023-04-05T06:20:50.054Z,101054.84
2023-04-05T06:22:53.433Z,101051.22
2023-04-05T06:24:56.779Z,101055.59
2023-04-05T06:27:00.155Z,101051.13
2023-04-05T06:29:03.410Z,101054.56
2023-04-05T06:31:09.863Z,101049.25
2023-04-05T06:33:13.684Z,101041.28
2023-04-05T06:35:17.122Z,101044.78
2023-04-05T06:37:20.390Z,101040.34
2023-04-05T06:39:23.754Z,101046.41
2023-04-05T06:41:27.843Z,101045.47
2023-04-05T06:43:32.540Z,101040.88
2023-04-05T06:45:36.169Z,101051.34
2023-04-05T06:47:42.276Z,101045.09
2023-04-05T06:49:45.694Z,101044.88
2023-04-05T06:51:48.964Z,101051.78
2023-04-05T06:53:52.382Z,101046.28
2023-04-05T06:55:55.960Z,101049.59
2023-04-05T06:58:00.368Z,101038.78
2023-04-05T07:00:09.116Z,101047.31
2023-04-05T07:02:13.723Z,101047.84
2023-04-05T07:04:19.008Z,101038.00
2023-04-05T07:06:23.972Z,101046.53
2023-04-05T07:08:28.268Z,101047.25
2023-04-05T07:10:31.744Z,101041.75
2023-04-05T07:12:35.365Z,101052.19
2023-04-05T07:14:39.179Z,101051.22
2023-04-05T07:16:42.690Z,101046.78
2023-04-05T07:18:46.317Z,101048.38
2023-04-05T07:20:51.112Z,101040.41
2023-04-05T07:22:54.781Z,101036.78
2023-04-05T07:24:58.117Z,101022.56
2023-04-05T07:27:02.952Z,101026.00
2023-04-05T07:29:08.252Z,101032.78
2023-04-05T07:31:12.860Z,101038.75
2023-04-05T07:33:16.518Z,101025.34
2023-04-05T07:35:19.781Z,101028.00
2023-04-05T07:37:27.580Z,101033.25
2023-04-05T07:39:31.033Z,101031.44
2023-04-05T07:41:35.594Z,101033.13
2023-04-05T07:43:38.911Z,101036.53
2023-04-05T07:45:42.453Z,101034.75
2023-04-05T07:47:46.343Z,101026.78
2023-04-05T07:49:49.711Z,101026.56
2023-04-05T07:51:56.217Z,101031.66
2023-04-05T07:54:03.202Z,101027.97
2023-04-05T07:56:07.664Z,101025.09
2023-04-05T07:58:11.759Z,101028.41
2023-04-05T08:00:16.163Z,101026.41
2023-04-05T08:02:20.131Z,101028.75
2023-04-05T08:04:26.240Z,101023.09
2023-04-05T08:06:29.783Z,101031.63
2023-04-05T08:08:33.571Z,101024.19
2023-04-05T08:10:41.569Z,101022.13
2023-04-05T08:12:45.791Z,101025.22
2023-04-05T08:14:49.229Z,101026.69
2023-04-05T08:16:52.649Z,101032.53
2023-04-05T08:18:56.095Z,101020.66
2023-04-05T08:20:59.812Z,101023.81
2023-04-05T08:23:03.094Z,101026.06
2023-04-05T08:25:07.240Z,101022.84
2023-04-05T08:27:11.985Z,101012.63
2023-04-05T08:29:16.799Z,101017.41
2023-04-05T08:31:21.159Z,101019.66
2023-04-05T08:33:28.541Z,101021.84
2023-04-05T08:35:31.835Z,101022.50
2023-04-05T08:37:36.820Z,101017.91
2023-04-05T08:39:40.313Z,101020.78
2023-04-05T08:41:51.515Z,101015.81
2023-04-05T08:44:02.965Z,101018.91
2023-04-05T08:46:10.764Z,101027.09
2023-04-05T08:48:14.217Z,101016.56
2023-04-05T08:50:18.495Z,101021.97
2023-04-05T08:52:21.922Z,101014.88
2023-04-05T08:54:25.746Z,101019.13
2023-04-05T08:56:33.466Z,101022.41
2023-04-05T08:58:38.967Z,101017.84
2023-04-05T09:00:45.231Z,101014.41
2023-04-05T09:02:51.380Z,101014.34
2023-04-05T09:04:55.277Z,101014.22
2023-04-05T09:07:00.645Z,101017.84
2023-04-05T09:09:08.102Z,101012.50
2023-04-05T09:11:13.276Z,101022.09
2023-04-05T09:13:17.086Z,101016.66
2023-04-05T09:15:24.511Z,101018.25
2023-04-05T09:17:32.489Z,101018.03
2023-04-05T09:19:36.092Z,101013.34
2023-04-05T09:22:02.003Z,101004.19
2023-04-05T09:24:09.080Z,101006.38
2023-04-05T09:26:22.964Z,101004.88
2023-04-05T09:28:46.049Z,101005.91
2023-04-05T09:30:49.931Z,101005.13
2023-04-05T09:32:55.660Z,100991.53
2023-04-05T09:35:01.564Z,100998.28
2023-04-05T09:37:16.418Z,100999.69
2023-04-05T09:39:23.613Z,100996.56
2023-04-05T09:41:27.383Z,101000.00
2023-04-05T09:43:41.466Z,101000.13
2023-04-05T09:45:46.394Z,100996.03
2023-04-05T09:47:58.290Z,101000.38
2023-04-05T09:50:02.310Z,101005.00
2023-04-05T09:52:05.893Z,101007.16
2023-04-05T09:54:12.441Z,101004.25
2023-04-05T09:56:16.170Z,101000.59
2023-04-05T09:58:22.384Z,101000.22
2023-04-05T10:00:26.967Z,100999.72
2023-04-05T10:02:38.514Z,100994.25
2023-04-05T10:04:45.305Z,101000.72
2023-04-05T10:06:49.516Z,100994.66
2023-04-05T10:08:54.057Z,101001.84
2023-04-05T10:11:00.859Z,100999.28
2023-04-05T10:13:07.517Z,100999.31
2023-04-05T10:15:14.400Z,100995.19
2023-04-05T10:17:25.573Z,100997.03
2023-04-05T10:19:38.315Z,100994.00
2023-04-05T10:21:46.325Z,100991.31
2023-04-05T10:24:08.389Z,101001.34
2023-04-05T10:26:19.346Z,100988.28
2023-04-05T10:28:31.569Z,100986.44
2023-04-05T10:30:38.247Z,100979.34
2023-04-05T10:32:54.311Z,100985.69
2023-04-05T10:35:05.973Z,100991.84
2023-04-05T10:37:24.900Z,100986.84
2023-04-05T10:39:30.700Z,100991.44
2023-04-05T10:41:38.491Z,100988.28
2023-04-05T10:43:43.655Z,100990.25
2023-04-05T10:45:50.260Z,100977.25
2023-04-05T10:47:59.768Z,100980.06
2023-04-05T10:50:06.628Z,100993.69
2023-04-05T10:52:13.314Z,100986.69
2023-04-05T10:54:18.827Z,100998.63
2023-04-05T10:56:23.721Z,100994.69
2023-04-05T10:58:28.226Z,100988.28
2023-04-05T11:00:32.066Z,100989.38
2023-04-05T11:02:36.519Z,100993.84
2023-04-05T11:04:42.745Z,100988.28
2023-04-05T11:06:48.366Z,100993.38
2023-04-05T11:08:57.068Z,100980.97
2023-04-05T11:11:00.928Z,100991.28
2023-04-05T11:13:12.243Z,100979.63
2023-04-05T11:15:33.563Z,100979.00
2023-04-05T11:17:37.875Z,100994.03
2023-04-05T11:19:52.532Z,100972.63
2023-04-05T11:22:03.849Z,100972.13
2023-04-05T11:24:12.408Z,100971.84
2023-04-05T11:26:17.394Z,100965.53
2023-04-05T11:28:26.453Z,100957.66
2023-04-05T11:30:48.868Z,100970.88
2023-04-05T11:32:53.026Z,100969.81
2023-04-05T11:35:01.319Z,100960.75
2023-04-05T11:37:04.981Z,100966.94
2023-04-05T11:39:31.932Z,100963.16
2023-04-05T11:41:36.162Z,100965.84
2023-04-05T11:43:39.795Z,100961.50
2023-04-05T11:45:43.731Z,100961.41
2023-04-05T11:47:47.915Z,100962.16
2023-04-05T11:49:52.592Z,100969.81
2023-04-05T11:51:56.971Z,100952.63
2023-04-05T11:54:00.776Z,100953.47
2023-04-05T11:56:12.965Z,100945.31
2023-04-05T11:58:18.255Z,100948.88
2023-04-05T12:00:24.296Z,100949.59
2023-04-05T12:02:27.883Z,100942.09
2023-04-05T12:04:31.858Z,100939.06
2023-04-05T12:06:35.557Z,100948.28
2023-04-05T12:08:50.123Z,100939.91
2023-04-05T12:10:57.740Z,100945.38
2023-04-05T12:13:02.980Z,100947.31
2023-04-05T12:15:10.983Z,100944.75
2023-04-05T12:17:15.174Z,100948.13
2023-04-05T12:19:20.263Z,100933.13
2023-04-05T12:21:24.884Z,100933.00
2023-04-05T12:23:29.148Z,100934.59
2023-04-05T12:25:33.709Z,100932.28
2023-04-05T12:27:39.651Z,100926.94
2023-04-05T12:30:17.936Z,100923.28
2023-04-05T12:32:22.700Z,100923.28
2023-04-05T12:34:27.253Z,100921.59
2023-04-05T12:36:32.973Z,100920.16
2023-04-05T12:38:39.522Z,100921.00
2023-04-05T12:40:44.852Z,100923.78
2023-04-05T12:42:48.619Z,100924.50
2023-04-05T12:45:06.530Z,100920.72
2023-04-05T12:47:11.482Z,100914.56
2023-04-05T12:49:17.511Z,100919.38
2023-04-05T12:51:21.069Z,100910.09
2023-04-05T12:53:28.723Z,100916.75
2023-04-05T12:55:32.812Z,100908.47
2023-04-05T12:57:37.073Z,100916.22
2023-04-05T12:59:40.717Z,100918.63
2023-04-05T13:01:45.932Z,100917.94
2023-04-05T13:03:52.109Z,100922.91
2023-04-05T13:05:58.652Z,100918.69
2023-04-05T13:08:02.878Z,100922.31
2023-04-05T13:10:07.912Z,100922.22
2023-04-05T13:12:11.759Z,100921.22
2023-04-05T13:14:16.069Z,100927.16
2023-04-05T13:16:21.141Z,100918.75
2023-04-05T13:18:27.040Z,100923.63
2023-04-05T13:20:33.704Z,100913.53
2023-04-05T13:22:38.432Z,100913.28
2023-04-05T13:24:42.096Z,100918.63
2023-04-05T13:26:46.661Z,100924.22
2023-04-05T13:28:50.593Z,100928.22
2023-04-05T13:30:54.690Z,100929.69
2023-04-05T13:32:59.124Z,100932.50
2023-04-05T13:35:07.685Z,100928.88
2023-04-05T13:37:12.869Z,100922.78
2023-04-05T13:39:16.921Z,100923.53
2023-04-05T13:41:21.500Z,100924.50
2023-04-05T13:43:27.052Z,100918.41
2023-04-05T13:45:31.765Z,100915.16
2023-04-05T13:47:35.798Z,100914.31
2023-04-05T13:49:39.705Z,100908.97
2023-04-05T13:51:45.024Z,100906.28
2023-04-05T13:53:49.328Z,100904.09
2023-04-05T13:55:53.274Z,100901.91
2023-04-05T13:57:57.238Z,100905.28
2023-04-05T14:00:01.584Z,100894.63
2023-04-05T14:02:15.540Z,100892.22
2023-04-05T14:04:20.773Z,100888.84
2023-04-05T14:06:25.165Z,100890.50
2023-04-05T14:08:30.977Z,100893.44
2023-04-05T14:10:35.686Z,100882.06
2023-04-05T14:12:41.008Z,100872.59
2023-04-05T14:14:48.846Z,100873.31
2023-04-05T14:16:56.794Z,100874.28
2023-04-05T14:19:06.328Z,100880.84
2023-04-05T14:21:12.526Z,100875.50
2023-04-05T14:23:17.733Z,100874.53
2023-04-05T14:25:23.849Z,100877.34
2023-04-05T14:27:28.970Z,100874.75
2023-04-05T14:29:35.841Z,100878.66
2023-04-05T14:31:44.699Z,100870.91
2023-04-05T14:33:52.032Z,100879.13
2023-04-05T14:36:00.010Z,100881.09
2023-04-05T14:38:05.078Z,100880.50
2023-04-05T14:40:10.140Z,100880.75
2023-04-05T14:42:16.225Z,100880.88
2023-04-05T14:44:20.775Z,100878.34
2023-04-05T14:46:30.616Z,100876.75
2023-04-05T14:48:35.309Z,100875.91
2023-04-05T14:50:44.611Z,100873.47
2023-04-05T14:52:49.884Z,100880.66
2023-04-05T14:54:54.622Z,100874.56
2023-04-05T14:56:59.300Z,100882.84
2023-04-05T14:59:05.189Z,100872.56
2023-04-05T15:01:10.502Z,100871.19
2023-04-05T15:03:15.306Z,100874.38
2023-04-05T15:05:20.086Z,100862.38
2023-04-05T15:07:24.149Z,100867.34
2023-04-05T15:09:28.113Z,100866.84
2023-04-05T15:11:34.473Z,100870.38
2023-04-05T15:13:40.160Z,100866.16
2023-04-05T15:15:45.843Z,100866.97
2023-04-05T15:17:50.126Z,100866.72
2023-04-05T15:19:54.337Z,100870.13
2023-04-05T15:21:58.107Z,100870.97
2023-04-05T15:24:02.431Z,100870.97
2023-04-05T15:26:06.322Z,100877.50
2023-04-05T15:28:10.676Z,100877.16
2023-04-05T15:30:15.877Z,100882.09
2023-04-05T15:32:21.449Z,100889.13
2023-04-05T15:34:25.742Z,100881.97
2023-04-05T15:36:29.417Z,100887.63
2023-04-05T15:38:33.652Z,100882.69
2023-04-05T15:40:38.413Z,100885.56
2023-04-05T15:42:43.167Z,100891.06
2023-04-05T15:44:47.641Z,100886.47
2023-04-05T15:46:53.491Z,100888.91
2023-04-05T15:49:00.584Z,100887.81
2023-04-05T15:51:05.462Z,100893.78
2023-04-05T15:53:10.083Z,100891.47
2023-04-05T15:55:14.595Z,100882.97
2023-04-05T15:57:20.087Z,100896.50
2023-04-05T15:59:24.251Z,100888.66
2023-04-05T16:01:28.584Z,100890.66
2023-04-05T16:03:34.190Z,100890.53
2023-04-05T16:05:40.742Z,100895.63
2023-04-05T16:07:46.834Z,100888.66
2023-04-05T16:09:51.493Z,100898.53
2023-04-05T16:11:56.614Z,100900.66
2023-04-05T16:14:04.625Z,100898.22
2023-04-05T16:16:09.900Z,100897.28
2023-04-05T16:18:14.958Z,100894.50
2023-04-05T16:20:19.754Z,100897.28
2023-04-05T16:22:25.987Z,100901.63
2023-04-05T16:24:31.907Z,100901.41
2023-04-05T16:26:36.241Z,100903.97
2023-04-05T16:28:39.922Z,100903.84
2023-04-05T16:30:46.329Z,100903.84
2023-04-05T16:32:53.106Z,100906.50
2023-04-05T16:34:57.033Z,100887.06
2023-04-05T16:37:01.048Z,100888.66
2023-04-05T16:39:07.980Z,100882.88
2023-04-05T16:41:11.859Z,100885.09
2023-04-05T16:43:16.586Z,100889.09
2023-04-05T16:45:20.958Z,100886.84
2023-04-05T16:47:25.249Z,100894.03
2023-04-05T16:49:29.274Z,100895.16
2023-04-05T16:51:33.253Z,100897.13
2023-04-05T16:53:37.713Z,100898.50
2023-04-05T16:55:44.773Z,100899.13
2023-04-05T16:57:48.780Z,100893.69
2023-04-05T16:59:52.808Z,100899.97
2023-04-05T17:01:56.664Z,100900.06
2023-04-05T17:04:01.513Z,100909.97
2023-04-05T17:06:05.283Z,100905.13
2023-04-05T17:08:09.380Z,100910.69
2023-04-05T17:10:13.273Z,100905.81
2023-04-05T17:12:19.099Z,100910.41
2023-04-05T17:14:23.617Z,100909.53
2023-04-05T17:16:28.313Z,100902.41
2023-04-05T17:18:32.222Z,100901.44
2023-04-05T17:20:36.414Z,100907.75
2023-04-05T17:22:43.376Z,100905.91
2023-04-05T17:24:47.819Z,100909.41
2023-04-05T17:26:52.059Z,100904.31
2023-04-05T17:28:58.031Z,100894.88
2023-04-05T17:31:01.621Z,100890.75
2023-04-05T17:33:06.540Z,100895.31
2023-04-05T17:35:10.460Z,100893.75
2023-04-05T17:37:14.738Z,100888.53
2023-04-05T17:39:19.298Z,100893.84
2023-04-05T17:41:23.975Z,100890.09
2023-04-05T17:43:27.927Z,100886.63
2023-04-05T17:45:33.605Z,100883.84
2023-04-05T17:47:37.365Z,100883.00
2023-04-05T17:49:43.040Z,100882.13
2023-04-05T17:51:48.748Z,100878.63
2023-04-05T17:53:52.586Z,100890.22
2023-04-05T17:55:57.438Z,100872.69
2023-04-05T17:58:01.875Z,100872.06
2023-04-05T18:00:07.303Z,100871.22
2023-04-05T18:02:13.149Z,100870.38
2023-04-05T18:04:17.793Z,100874.75
2023-04-05T18:06:22.967Z,100871.84
2023-04-05T18:08:27.737Z,100861.31
2023-04-05T18:10:32.419Z,100857.78
2023-04-05T18:12:37.965Z,100863.22
2023-04-05T18:14:42.524Z,100866.00
2023-04-05T18:16:47.095Z,100861.63
2023-04-05T18:18:53.157Z,100860.81
2023-04-05T18:20:58.254Z,100852.94
2023-04-05T18:23:02.565Z,100857.41
2023-04-05T18:25:09.153Z,100853.28
2023-04-05T18:27:13.331Z,100857.75
2023-04-05T18:29:17.689Z,100863.28
2023-04-05T18:31:23.238Z,100862.44
2023-04-05T18:33:27.630Z,100859.88
2023-04-05T18:35:33.865Z,100860.13
2023-04-05T18:37:38.487Z,100854.06
2023-04-05T18:39:43.986Z,100857.91
2023-04-05T18:41:48.196Z,100859.09
2023-04-05T18:43:55.314Z,100854.97
2023-04-05T18:46:00.096Z,100866.66
2023-04-05T18:48:04.958Z,100859.00
2023-04-05T18:50:11.204Z,100862.84
2023-04-05T18:52:22.584Z,100858.72
2023-04-05T18:54:27.375Z,100858.94
2023-04-05T18:56:32.191Z,100860.22
2023-04-05T18:58:38.056Z,100862.25
2023-04-05T19:00:42.767Z,100861.63
2023-04-05T19:02:47.890Z,100864.50
2023-04-05T19:04:53.689Z,100863.09
2023-04-05T19:07:00.759Z,100872.00
2023-04-05T19:09:08.449Z,100870.44
2023-04-05T19:11:15.233Z,100868.84
2023-04-05T19:13:20.102Z,100866.28
2023-04-05T19:15:23.883Z,100867.38
2023-04-05T19:17:28.930Z,100866.50
2023-04-05T19:19:33.343Z,100863.00
2023-04-05T19:21:37.677Z,100862.06
2023-04-05T19:23:42.445Z,100859.59
2023-04-05T19:25:48.005Z,100861.53
2023-04-05T19:27:52.310Z,100860.75
2023-04-05T19:29:56.833Z,100860.97
2023-04-05T19:32:01.622Z,100862.91
2023-04-05T19:34:07.920Z,100854.19
2023-04-05T19:36:12.625Z,100860.44
2023-04-05T19:38:17.195Z,100850.81
2023-04-05T19:40:23.746Z,100853.47
2023-04-05T19:42:31.941Z,100853.47
2023-04-05T19:44:50.107Z,100858.66
2023-04-05T19:46:56.219Z,100866.50
2023-04-05T19:49:07.334Z,100866.50
2023-04-05T19:51:14.469Z,100867.34
2023-04-05T19:53:41.450Z,100860.34
2023-04-05T19:55:47.685Z,100870.97
2023-04-05T19:57:53.849Z,100867.56
2023-04-05T19:59:59.179Z,100880.00
2023-04-05T20:02:12.413Z,100882.03
2023-04-05T20:04:21.407Z,100888.38
2023-04-05T20:06:27.339Z,100890.31
2023-04-05T20:08:32.404Z,100893.91
2023-04-05T20:10:42.130Z,100884.47
2023-04-05T20:12:46.795Z,100892.53
2023-04-05T20:14:53.521Z,100897.94
2023-04-05T20:16:59.851Z,100902.41
2023-04-05T20:19:05.625Z,100894.53
2023-04-05T20:21:10.164Z,100903.44
2023-04-05T20:23:16.571Z,100901.75
2023-04-05T20:25:39.103Z,100901.00
2023-04-05T20:27:42.793Z,100909.91
2023-04-05T20:29:47.573Z,100899.63
2023-04-05T20:31:54.157Z,100911.31
2023-04-05T20:34:12.420Z,100909.59
2023-04-05T20:36:19.621Z,100909.59
2023-04-05T20:38:23.205Z,100916.72
2023-04-05T20:40:27.806Z,100911.50
2023-04-05T20:42:34.063Z,100906.38
2023-04-05T20:44:38.409Z,100908.19
2023-04-05T20:46:42.367Z,100906.38
2023-04-05T20:48:48.108Z,100907.16
2023-04-05T20:50:52.457Z,100907.03
2023-04-05T20:52:56.386Z,100908.00
2023-04-05T20:55:00.466Z,100905.34
2023-04-05T20:57:04.482Z,100909.81
2023-04-05T20:59:08.696Z,100910.84
2023-04-05T21:01:13.087Z,100909.25
2023-04-05T21:03:17.791Z,100904.91
2023-04-05T21:05:23.169Z,100909.47
2023-04-05T21:07:27.409Z,100901.50
2023-04-05T21:09:36.681Z,100906.94
2023-04-05T21:11:40.874Z,100905.09
2023-04-05T21:13:44.720Z,100903.41
2023-04-05T21:15:50.262Z,100902.47
2023-04-05T21:17:54.416Z,100903.31
2023-04-05T21:19:59.220Z,100904.28
2023-04-05T21:22:05.674Z,100907.88
2023-04-05T21:24:10.030Z,100907.03
2023-04-05T21:26:13.534Z,100904.44
2023-04-05T21:28:18.359Z,100906.25
2023-04-05T21:30:22.377Z,100901.91
2023-04-05T21:32:26.450Z,100908.09
2023-04-05T21:34:31.283Z,100899.16
2023-04-05T21:36:35.020Z,100901.16
2023-04-05T21:38:40.964Z,100903.81
2023-04-05T21:40:46.513Z,100908.25
2023-04-05T21:42:51.206Z,100904.78
2023-04-05T21:44:55.900Z,100905.81
2023-04-05T21:47:02.701Z,100912.06
2023-04-05T21:49:07.729Z,100916.53
2023-04-05T21:51:13.332Z,100911.22
2023-04-05T21:53:20.657Z,100916.66
2023-04-05T21:55:27.302Z,100913.22
2023-04-05T21:57:33.884Z,100911.44
2023-04-05T21:59:38.630Z,100917.59
2023-04-05T22:01:43.592Z,100921.13
2023-04-05T22:03:47.951Z,100919.31
2023-04-05T22:05:52.762Z,100929.06
2023-04-05T22:07:57.254Z,100916.75
2023-04-05T22:10:01.838Z,100929.06
2023-04-05T22:12:08.131Z,100924.72
2023-04-05T22:14:12.397Z,100923.00
2023-04-05T22:16:16.769Z,100929.16
2023-04-05T22:18:21.098Z,100931.91
2023-04-05T22:20:25.554Z,100934.56
2023-04-05T22:22:29.915Z,100933.72
2023-04-05T22:24:34.765Z,100938.19
2023-04-05T22:26:40.581Z,100934.66
2023-04-05T22:28:46.833Z,100933.94
2023-04-05T22:30:51.548Z,100931.38
2023-04-05T22:32:56.389Z,100931.38
2023-04-05T22:35:00.637Z,100926.16
2023-04-05T22:37:04.931Z,100926.25
2023-04-05T22:39:09.600Z,100930.94
2023-04-05T22:41:14.733Z,100923.91
2023-04-05T22:43:19.317Z,100926.66
2023-04-05T22:45:26.845Z,100920.59
2023-04-05T22:47:31.434Z,100921.75
2023-04-05T22:49:36.156Z,100919.09
2023-04-05T22:51:40.463Z,100930.84
2023-04-05T22:53:45.120Z,100924.81
2023-04-05T22:55:49.285Z,100923.22
2023-04-05T22:57:54.124Z,100933.16
2023-04-05T22:59:58.837Z,100912.97
2023-04-05T23:02:04.935Z,100921.03
2023-04-05T23:04:10.009Z,100922.09
2023-04-05T23:06:16.274Z,100932.91
2023-04-05T23:08:20.696Z,100913.59
2023-04-05T23:10:24.863Z,100916.31
2023-04-05T23:12:31.071Z,100920.78
2023-04-05T23:14:35.952Z,100917.41
2023-04-05T23:16:39.885Z,100920.13
2023-04-05T23:18:46.018Z,100918.34
2023-04-05T23:20:50.349Z,100919.28
2023-04-05T23:22:54.517Z,100924.69
2023-04-05T23:25:01.214Z,100923.06
2023-04-05T23:27:05.654Z,100922.31
2023-04-05T23:29:10.227Z,100923.38
2023-04-05T23:31:14.619Z,100922.50
2023-04-05T23:33:18.763Z,100924.31
2023-04-05T23:35:24.376Z,100923.56
2023-04-05T23:37:28.537Z,100923.56
2023-04-05T23:39:33.204Z,100919.22
2023-04-05T23:41:38.217Z,100921.94
2023-04-05T23:43:42.397Z,100915.81
2023-04-05T23:45:47.037Z,100914.19
2023-04-05T23:47:52.221Z,100904.53
2023-04-05T23:49:57.007Z,100900.16
2023-04-05T23:52:02.640Z,100902.06
2023-04-05T23:54:06.924Z,100901.22
2023-04-05T23:56:14.808Z,100891.56
2023-04-05T23:58:19.032Z,100892.41
